createdAt,value
2022-09-02T00:01:42.741Z,21.50
2022-09-02T00:04:13.292Z,17.00
2022-09-02T00:06:43.272Z,16.00
2022-09-02T00:09:14.099Z,13.10
2022-09-02T00:11:44.367Z,12.20
2022-09-02T00:14:16.372Z,10.50
2022-09-02T00:16:50.925Z,8.40
2022-09-02T00:19:21.458Z,9.20
2022-09-02T00:21:52.068Z,8.50
2022-09-02T00:24:21.766Z,7.80
2022-09-02T00:26:51.902Z,7.10
2022-09-02T00:29:26.471Z,5.50
2022-09-02T00:31:55.402Z,4.20
2022-09-02T00:34:24.129Z,3.80
2022-09-02T00:36:52.597Z,3.30
2022-09-02T00:39:21.218Z,4.10
2022-09-02T00:41:50.365Z,3.80
2022-09-02T00:44:20.066Z,4.00
2022-09-02T00:46:49.243Z,3.70
2022-09-02T00:49:24.382Z,3.80
2022-09-02T00:51:58.880Z,3.80
2022-09-02T00:54:30.437Z,4.10
2022-09-02T00:57:00.717Z,4.00
2022-09-02T00:59:40.839Z,5.30
2022-09-02T01:02:09.891Z,5.50
2022-09-02T01:04:42.575Z,7.00
2022-09-02T01:07:11.963Z,8.60
2022-09-02T01:09:40.647Z,9.00
2022-09-02T01:12:12.142Z,9.30
2022-09-02T01:14:40.581Z,9.50
2022-09-02T01:17:09.307Z,8.80
2022-09-02T01:19:43.084Z,9.30
2022-09-02T01:22:17.322Z,8.90
2022-09-02T01:24:45.773Z,7.90
2022-09-02T01:27:16.705Z,8.70
2022-09-02T01:29:45.924Z,8.70
2022-09-02T01:32:14.373Z,8.50
2022-09-02T01:34:42.921Z,8.30
2022-09-02T01:37:11.896Z,8.20
2022-09-02T01:39:40.672Z,10.40
2022-09-02T01:42:09.215Z,10.30
2022-09-02T01:44:43.417Z,7.90
2022-09-02T01:47:12.920Z,4.50
2022-09-02T01:49:41.942Z,3.70
2022-09-02T01:52:10.536Z,3.40
2022-09-02T01:54:39.715Z,2.70
2022-09-02T01:57:09.450Z,2.70
2022-09-02T01:59:38.072Z,2.90
2022-09-02T02:02:06.908Z,3.00
2022-09-02T02:04:35.421Z,2.70
2022-09-02T02:07:05.950Z,2.60
2022-09-02T02:09:34.736Z,3.10
2022-09-02T02:12:05.606Z,2.80
2022-09-02T02:14:34.206Z,3.60
2022-09-02T02:17:04.022Z,3.70
2022-09-02T02:19:32.795Z,3.80
2022-09-02T02:22:02.194Z,3.00
2022-09-02T02:24:30.785Z,2.80
2022-09-02T02:26:59.224Z,3.60
2022-09-02T02:29:28.757Z,2.80
2022-09-02T02:31:57.455Z,3.30
2022-09-02T02:34:25.998Z,2.90
2022-09-02T02:36:54.514Z,3.10
2022-09-02T02:39:23.574Z,2.70
2022-09-02T02:41:52.176Z,3.10
2022-09-02T02:44:21.294Z,2.70
2022-09-02T02:46:50.080Z,3.20
2022-09-02T02:49:18.610Z,4.00
2022-09-02T02:51:47.027Z,3.40
2022-09-02T02:54:16.103Z,3.00
2022-09-02T02:56:44.939Z,2.80
2022-09-02T02:59:13.835Z,3.00
2022-09-02T03:01:42.650Z,2.60
2022-09-02T03:04:11.236Z,3.30
2022-09-02T03:06:39.795Z,3.10
2022-09-02T03:09:08.325Z,3.00
2022-09-02T03:11:37.830Z,3.20
2022-09-02T03:14:07.015Z,3.10
2022-09-02T03:16:36.789Z,3.50
2022-09-02T03:19:06.637Z,3.20
2022-09-02T03:21:38.766Z,3.20
2022-09-02T03:24:09.134Z,2.90
2022-09-02T03:26:38.233Z,2.80
2022-09-02T03:29:07.309Z,4.20
2022-09-02T03:31:36.661Z,4.00
2022-09-02T03:34:07.337Z,3.90
2022-09-02T03:36:38.661Z,4.40
2022-09-02T03:39:09.866Z,3.90
2022-09-02T03:41:41.008Z,4.40
2022-09-02T03:44:10.406Z,4.30
2022-09-02T03:46:39.255Z,4.20
2022-09-02T03:49:08.165Z,4.30
2022-09-02T03:51:41.798Z,3.40
2022-09-02T03:54:11.075Z,3.50
2022-09-02T03:56:40.305Z,4.00
2022-09-02T03:59:09.705Z,4.00
2022-09-02T04:01:38.389Z,3.80
2022-09-02T04:04:08.159Z,3.70
2022-09-02T04:06:37.444Z,4.10
2022-09-02T04:09:07.370Z,4.30
2022-09-02T04:11:37.489Z,4.20
2022-09-02T04:14:06.791Z,4.30
2022-09-02T04:16:35.891Z,4.50
2022-09-02T04:19:08.957Z,4.50
2022-09-02T04:21:40.449Z,4.30
2022-09-02T04:24:12.265Z,4.70
2022-09-02T04:26:44.979Z,4.40
2022-09-02T04:29:16.609Z,5.10
2022-09-02T04:31:45.636Z,5.30
2022-09-02T04:34:14.289Z,4.50
2022-09-02T04:36:42.901Z,4.60
2022-09-02T04:39:13.078Z,4.90
2022-09-02T04:41:41.957Z,4.50
2022-09-02T04:44:11.150Z,4.70
2022-09-02T04:46:41.329Z,5.10
2022-09-02T04:49:13.677Z,5.50
2022-09-02T04:51:42.783Z,5.30
2022-09-02T04:54:11.721Z,4.90
2022-09-02T04:56:42.074Z,4.70
2022-09-02T04:59:10.991Z,5.70
2022-09-02T05:01:41.570Z,5.30
2022-09-02T05:04:14.462Z,6.10
2022-09-02T05:06:46.632Z,5.20
2022-09-02T05:09:20.474Z,5.10
2022-09-02T05:11:57.121Z,5.00
2022-09-02T05:14:26.030Z,5.10
2022-09-02T05:16:55.058Z,5.20
2022-09-02T05:19:24.571Z,4.70
2022-09-02T05:21:55.473Z,4.20
2022-09-02T05:24:31.086Z,4.70
2022-09-02T05:27:01.901Z,4.40
2022-09-02T05:29:31.554Z,4.80
2022-09-02T05:32:00.095Z,4.90
2022-09-02T05:34:29.492Z,4.80
2022-09-02T05:36:59.947Z,5.30
2022-09-02T05:39:31.340Z,4.90
2022-09-02T05:42:00.458Z,5.00
2022-09-02T05:44:30.784Z,4.70
2022-09-02T05:46:59.712Z,4.90
2022-09-02T05:49:29.051Z,4.70
2022-09-02T05:52:01.609Z,5.20
2022-09-02T05:54:40.179Z,6.30
2022-09-02T05:57:13.314Z,5.00
2022-09-02T06:00:07.839Z,4.20
2022-09-02T06:02:42.767Z,4.90
2022-09-02T06:05:18.348Z,7.10
2022-09-02T06:07:52.780Z,5.70
2022-09-02T06:10:22.575Z,5.10
2022-09-02T06:12:51.143Z,4.30
2022-09-02T06:15:22.078Z,4.40
2022-09-02T06:17:50.783Z,4.40
2022-09-02T06:20:19.777Z,3.80
2022-09-02T06:22:49.027Z,3.80
2022-09-02T06:25:20.410Z,3.80
2022-09-02T06:27:49.222Z,4.30
2022-09-02T06:30:17.973Z,3.10
2022-09-02T06:32:50.539Z,3.50
2022-09-02T06:35:19.876Z,3.90
2022-09-02T06:37:48.858Z,4.40
2022-09-02T06:40:18.966Z,4.20
2022-09-02T06:42:49.787Z,4.30
2022-09-02T06:45:28.847Z,4.90
2022-09-02T06:47:58.953Z,5.50
2022-09-02T06:50:27.649Z,5.50
2022-09-02T06:52:57.169Z,5.30
2022-09-02T06:55:25.974Z,5.10
2022-09-02T06:57:55.141Z,4.00
2022-09-02T07:00:23.859Z,5.10
2022-09-02T07:03:12.529Z,4.50
2022-09-02T07:05:41.451Z,4.80
2022-09-02T07:08:10.640Z,4.50
2022-09-02T07:10:40.146Z,4.00
2022-09-02T07:13:09.959Z,3.70
2022-09-02T07:15:41.645Z,4.20
2022-09-02T07:18:11.346Z,4.10
2022-09-02T07:20:39.751Z,5.30
2022-09-02T07:23:08.199Z,3.60
2022-09-02T07:25:40.571Z,2.90
2022-09-02T07:28:10.648Z,3.30
2022-09-02T07:30:43.682Z,3.80
2022-09-02T07:33:15.889Z,4.40
2022-09-02T07:35:46.283Z,4.00
2022-09-02T07:38:18.718Z,4.20
2022-09-02T07:40:48.412Z,4.00
2022-09-02T07:43:17.905Z,3.60
2022-09-02T07:45:46.923Z,4.00
2022-09-02T07:48:15.561Z,4.40
2022-09-02T07:50:44.828Z,3.60
2022-09-02T07:53:15.947Z,3.50
2022-09-02T07:55:46.699Z,3.20
2022-09-02T07:58:19.209Z,2.90
2022-09-02T08:00:49.315Z,2.10
2022-09-02T08:03:18.962Z,3.20
2022-09-02T08:05:51.619Z,2.30
2022-09-02T08:08:21.269Z,2.00
2022-09-02T08:10:51.790Z,1.30
2022-09-02T08:13:21.573Z,1.20
2022-09-02T08:15:50.967Z,1.10
2022-09-02T08:18:21.814Z,1.00
2022-09-02T08:20:51.437Z,0.90
2022-09-02T08:23:36.239Z,1.90
2022-09-02T08:26:06.779Z,1.20
2022-09-02T08:28:38.510Z,1.70
2022-09-02T08:31:07.966Z,1.20
2022-09-02T08:33:36.688Z,0.80
2022-09-02T08:36:08.618Z,0.90
2022-09-02T08:38:37.328Z,1.60
2022-09-02T08:41:17.401Z,1.70
2022-09-02T08:43:46.844Z,1.00
2022-09-02T08:46:17.804Z,0.80
2022-09-02T08:48:54.498Z,0.50
2022-09-02T08:51:37.425Z,0.90
2022-09-02T08:54:12.716Z,0.90
2022-09-02T08:56:41.960Z,0.90
2022-09-02T08:59:15.319Z,0.60
2022-09-02T09:01:51.127Z,1.00
2022-09-02T09:04:34.687Z,0.80
2022-09-02T09:07:21.388Z,0.70
2022-09-02T09:10:05.049Z,1.30
2022-09-02T09:12:48.175Z,1.80
2022-09-02T09:15:25.572Z,1.30
2022-09-02T09:17:57.944Z,1.10
2022-09-02T09:20:28.488Z,1.10
2022-09-02T09:22:59.467Z,0.90
2022-09-02T09:25:29.685Z,0.60
2022-09-02T09:27:58.466Z,0.60
2022-09-02T09:30:29.480Z,0.60
2022-09-02T09:32:59.825Z,0.50
2022-09-02T09:35:46.220Z,0.80
2022-09-02T09:38:14.851Z,0.90
2022-09-02T09:40:43.643Z,1.40
2022-09-02T09:43:16.294Z,0.80
2022-09-02T09:45:46.754Z,0.70
2022-09-02T09:48:22.534Z,0.50
2022-09-02T09:51:12.688Z,0.50
2022-09-02T09:53:41.658Z,0.50
2022-09-02T09:56:26.974Z,0.50
2022-09-02T09:58:55.750Z,2.60
2022-09-02T10:01:28.456Z,1.30
2022-09-02T10:04:01.021Z,0.60
2022-09-02T10:06:39.582Z,0.60
2022-09-02T10:09:31.127Z,0.60
2022-09-02T10:12:03.348Z,0.80
2022-09-02T10:14:37.103Z,1.00
2022-09-02T10:17:16.275Z,0.40
2022-09-02T10:19:57.303Z,0.40
2022-09-02T10:22:58.764Z,0.50
2022-09-02T10:25:40.506Z,0.60
2022-09-02T10:28:18.942Z,0.50
2022-09-02T10:31:02.017Z,0.30
2022-09-02T10:33:40.752Z,0.60
2022-09-02T10:36:20.814Z,0.40
2022-09-02T10:38:53.231Z,0.70
2022-09-02T10:41:42.162Z,0.40
2022-09-02T10:44:29.681Z,0.50
2022-09-02T10:47:01.873Z,0.70
2022-09-02T10:50:04.189Z,0.50
2022-09-02T10:52:52.608Z,0.30
2022-09-02T10:55:37.408Z,0.40
2022-09-02T10:58:12.585Z,0.40
2022-09-02T11:00:51.124Z,0.30
2022-09-02T11:03:24.190Z,0.50
2022-09-02T11:05:58.158Z,1.70
2022-09-02T11:08:36.470Z,0.70
2022-09-02T11:11:09.208Z,0.60
2022-09-02T11:13:50.327Z,0.50
2022-09-02T11:16:24.589Z,1.00
2022-09-02T11:18:59.870Z,0.60
2022-09-02T11:21:40.404Z,0.40
2022-09-02T11:24:15.473Z,0.30
2022-09-02T11:26:53.670Z,0.50
2022-09-02T11:29:32.896Z,0.40
2022-09-02T11:32:10.305Z,0.40
2022-09-02T11:34:43.909Z,0.40
2022-09-02T11:37:23.440Z,0.40
2022-09-02T11:40:11.547Z,0.60
2022-09-02T11:43:02.779Z,0.50
2022-09-02T11:45:56.248Z,0.60
2022-09-02T11:48:56.800Z,0.50
2022-09-02T11:51:49.942Z,0.80
2022-09-02T11:54:22.419Z,1.60
2022-09-02T11:56:57.554Z,0.50
2022-09-02T12:00:07.459Z,0.60
2022-09-02T12:02:46.368Z,0.70
2022-09-02T12:05:50.790Z,0.40
2022-09-02T12:08:53.196Z,2.30
2022-09-02T12:11:39.275Z,0.50
2022-09-02T12:14:13.168Z,0.60
2022-09-02T12:17:01.988Z,0.90
2022-09-02T12:19:42.046Z,0.70
2022-09-02T12:22:31.955Z,0.40
2022-09-02T12:25:00.740Z,0.60
2022-09-02T12:27:35.561Z,1.20
2022-09-02T12:30:07.113Z,2.80
2022-09-02T12:33:12.825Z,0.80
2022-09-02T12:35:52.866Z,0.50
2022-09-02T12:38:35.283Z,0.80
2022-09-02T12:41:32.573Z,0.70
2022-09-02T12:44:21.249Z,0.60
2022-09-02T12:46:57.885Z,2.20
2022-09-02T12:49:38.477Z,0.50
2022-09-02T12:52:10.214Z,1.00
2022-09-02T12:54:47.207Z,0.60
2022-09-02T12:57:17.313Z,0.70
2022-09-02T12:59:47.285Z,0.80
2022-09-02T13:02:34.788Z,0.30
2022-09-02T13:05:17.792Z,0.50
2022-09-02T13:08:13.603Z,0.50
2022-09-02T13:10:56.856Z,0.40
2022-09-02T13:14:08.222Z,0.20
2022-09-02T13:16:51.920Z,0.40
2022-09-02T13:19:55.007Z,0.50
2022-09-02T13:22:39.863Z,0.50
2022-09-02T13:29:59.631Z,0.50
2022-09-02T13:32:30.317Z,0.60
2022-09-02T13:35:02.711Z,0.40
2022-09-02T13:37:34.422Z,0.30
2022-09-02T13:40:17.441Z,0.30
2022-09-02T13:42:49.885Z,0.80
2022-09-02T13:45:20.705Z,0.30
2022-09-02T13:47:53.175Z,2.60
2022-09-02T13:50:24.516Z,2.30
2022-09-02T13:55:51.675Z,1.40
2022-09-02T13:58:36.463Z,0.70
2022-09-02T14:01:35.046Z,0.50
2022-09-02T14:04:07.181Z,1.10
2022-09-02T14:06:39.166Z,0.40
2022-09-02T14:09:18.732Z,1.30
2022-09-02T14:11:49.028Z,0.70
2022-09-02T14:14:22.146Z,0.60
2022-09-02T14:16:52.015Z,0.60
2022-09-02T14:19:26.662Z,0.80
2022-09-02T14:21:57.243Z,0.40
2022-09-02T14:24:28.049Z,0.50
2022-09-02T14:26:58.115Z,1.80
2022-09-02T14:29:30.636Z,1.00
2022-09-02T14:32:12.478Z,0.80
2022-09-02T14:34:42.417Z,0.80
2022-09-02T14:37:23.479Z,0.60
2022-09-02T14:40:09.173Z,0.40
2022-09-02T14:42:51.739Z,0.70
2022-09-02T14:45:28.400Z,0.50
2022-09-02T14:48:01.587Z,0.80
2022-09-02T14:50:35.604Z,0.60
2022-09-02T14:53:07.523Z,0.90
2022-09-02T14:55:45.418Z,0.80
2022-09-02T14:58:15.127Z,0.80
2022-09-02T15:03:59.457Z,1.00
2022-09-02T15:06:27.855Z,0.80
2022-09-02T15:08:56.289Z,0.80
2022-09-02T15:11:24.737Z,1.80
2022-09-02T15:13:53.378Z,1.00
2022-09-02T15:16:21.870Z,0.90
2022-09-02T15:18:50.275Z,1.20
2022-09-02T15:21:19.128Z,0.90
2022-09-02T15:23:51.142Z,1.00
2022-09-02T15:26:20.236Z,1.40
2022-09-02T15:28:48.807Z,1.70
2022-09-02T15:31:17.539Z,1.00
2022-09-02T15:33:51.341Z,0.90
2022-09-02T15:36:20.601Z,0.70
2022-09-02T15:38:49.110Z,0.80
2022-09-02T15:41:19.580Z,2.80
2022-09-02T15:43:48.751Z,3.70
2022-09-02T15:46:19.969Z,1.00
2022-09-02T15:48:50.617Z,0.90
2022-09-02T15:51:21.487Z,0.80
2022-09-02T15:53:55.727Z,0.60
2022-09-02T16:00:28.543Z,0.80
2022-09-02T16:02:57.423Z,0.80
2022-09-02T16:05:26.469Z,0.90
2022-09-02T16:07:55.325Z,1.10
2022-09-02T16:10:23.792Z,2.00
2022-09-02T16:12:52.172Z,1.00
2022-09-02T16:15:20.766Z,0.90
2022-09-02T16:17:50.975Z,0.90
2022-09-02T16:20:21.354Z,0.90
2022-09-02T16:22:49.949Z,0.90
2022-09-02T16:25:19.773Z,2.30
2022-09-02T16:27:57.101Z,2.50
2022-09-02T16:30:26.519Z,1.40
2022-09-02T16:32:55.115Z,1.40
2022-09-02T16:35:23.887Z,0.90
2022-09-02T16:37:53.206Z,1.00
2022-09-02T16:40:21.839Z,1.00
2022-09-02T16:42:50.471Z,0.90
2022-09-02T16:45:18.994Z,1.00
2022-09-02T16:47:47.491Z,0.50
2022-09-02T16:50:16.318Z,0.70
2022-09-02T16:52:44.808Z,0.60
2022-09-02T16:55:17.294Z,0.70
2022-09-02T17:01:36.526Z,0.80
2022-09-02T17:04:08.635Z,0.80
2022-09-02T17:06:42.019Z,0.90
2022-09-02T17:09:10.913Z,0.80
2022-09-02T17:11:40.735Z,0.90
2022-09-02T17:14:10.850Z,1.00
2022-09-02T17:16:41.086Z,0.90
2022-09-02T17:19:10.000Z,1.00
2022-09-02T17:21:41.744Z,4.70
2022-09-02T17:24:14.913Z,1.90
2022-09-02T17:26:46.147Z,1.20
2022-09-02T17:29:47.077Z,1.20
2022-09-02T17:32:06.641Z,2.20
2022-09-02T17:34:35.401Z,1.70
2022-09-02T17:37:04.585Z,1.20
2022-09-02T17:39:34.117Z,1.10
2022-09-02T17:42:04.626Z,1.20
2022-09-02T17:44:35.680Z,1.10
2022-09-02T17:47:06.254Z,1.50
2022-09-02T17:49:36.290Z,1.70
2022-09-02T17:52:06.841Z,1.70
2022-09-02T17:54:36.270Z,1.10
2022-09-02T17:57:19.440Z,1.20
2022-09-02T17:59:59.942Z,1.10
2022-09-02T18:02:43.614Z,1.20
2022-09-02T18:05:21.328Z,1.60
2022-09-02T18:08:00.690Z,1.20
2022-09-02T18:10:33.836Z,1.20
2022-09-02T18:13:05.183Z,1.30
2022-09-02T18:15:44.414Z,1.40
2022-09-02T18:18:16.284Z,1.30
2022-09-02T18:20:54.376Z,1.80
2022-09-02T18:23:36.098Z,2.40
2022-09-02T18:26:15.538Z,2.40
2022-09-02T18:28:56.333Z,1.80
2022-09-02T18:31:40.074Z,1.80
2022-09-02T18:34:34.809Z,1.90
2022-09-02T18:37:13.189Z,1.90
2022-09-02T18:40:03.915Z,4.30
2022-09-02T18:42:47.167Z,2.80
2022-09-02T18:45:22.180Z,3.30
2022-09-02T18:47:55.051Z,2.10
2022-09-02T18:50:57.740Z,2.20
2022-09-02T18:53:21.020Z,1.80
2022-09-02T18:55:51.413Z,1.40
2022-09-02T18:58:33.526Z,4.80
2022-09-02T19:01:06.680Z,4.80
2022-09-02T19:03:37.896Z,5.70
2022-09-02T19:06:11.626Z,2.40
2022-09-02T19:08:40.688Z,1.90
2022-09-02T19:11:13.024Z,2.30
2022-09-02T19:13:47.083Z,2.10
2022-09-02T19:16:18.447Z,2.00
2022-09-02T19:18:47.867Z,1.90
2022-09-02T19:21:20.738Z,1.90
2022-09-02T19:23:49.701Z,2.30
2022-09-02T19:26:18.549Z,2.40
2022-09-02T19:28:49.762Z,2.00
2022-09-02T19:31:22.827Z,3.30
2022-09-02T19:33:56.062Z,2.00
2022-09-02T19:36:31.224Z,2.30
2022-09-02T19:39:00.425Z,2.30
2022-09-02T19:41:29.065Z,2.40
2022-09-02T19:43:59.848Z,2.20
2022-09-02T19:47:11.920Z,2.80
2022-09-02T19:49:18.374Z,2.70
2022-09-02T19:51:47.898Z,3.20
2022-09-02T19:54:17.728Z,3.10
2022-09-02T19:56:46.875Z,3.50
2022-09-02T19:59:15.636Z,3.00
2022-09-02T20:01:44.474Z,3.10
2022-09-02T20:04:12.926Z,3.80
2022-09-02T20:06:41.384Z,3.70
2022-09-02T20:09:10.010Z,3.50
2022-09-02T20:11:41.296Z,3.30
2022-09-02T20:14:10.047Z,4.70
2022-09-02T20:16:38.792Z,3.50
2022-09-02T20:19:08.009Z,2.60
2022-09-02T20:21:43.468Z,2.90
2022-09-02T20:24:23.499Z,3.30
2022-09-02T20:26:59.700Z,2.50
2022-09-02T20:29:44.626Z,2.30
2022-09-02T20:32:28.626Z,2.50
2022-09-02T20:35:10.875Z,2.70
2022-09-02T20:37:52.991Z,2.30
2022-09-02T20:40:37.491Z,2.90
2022-09-02T20:43:34.500Z,2.10
2022-09-02T20:46:17.470Z,2.00
2022-09-02T20:49:00.818Z,2.40
2022-09-02T20:51:35.749Z,3.00
2022-09-02T20:54:22.773Z,2.70
2022-09-02T20:57:04.790Z,2.60
2022-09-02T20:59:56.499Z,2.10
2022-09-02T21:02:29.024Z,2.40
2022-09-02T21:05:02.540Z,2.50
2022-09-02T21:07:44.976Z,2.20
2022-09-02T21:10:22.511Z,2.30
2022-09-02T21:12:56.273Z,2.80
2022-09-02T21:15:29.650Z,2.20
2022-09-02T21:18:08.308Z,3.00
2022-09-02T21:20:46.125Z,2.20
2022-09-02T21:23:21.728Z,2.20
2022-09-02T21:25:55.373Z,2.50
2022-09-02T21:28:32.301Z,1.80
2022-09-02T21:31:07.118Z,2.30
2022-09-02T21:33:36.065Z,2.30
2022-09-02T21:36:06.065Z,2.20
2022-09-02T21:38:40.643Z,1.80
2022-09-02T21:41:30.372Z,1.90
2022-09-02T21:44:11.301Z,2.20
2022-09-02T21:46:56.816Z,2.00
2022-09-02T21:49:41.483Z,1.80
2022-09-02T21:52:21.627Z,1.60
2022-09-02T21:55:01.188Z,1.80
2022-09-02T21:57:45.534Z,1.90
2022-09-02T22:00:16.417Z,2.00
2022-09-02T22:02:57.583Z,1.80
2022-09-02T22:05:38.665Z,2.10
2022-09-02T22:08:16.727Z,1.70
2022-09-02T22:10:54.757Z,1.40
2022-09-02T22:13:26.330Z,2.00
2022-09-02T22:16:02.583Z,1.70
2022-09-02T22:18:40.110Z,1.80
2022-09-02T22:21:18.205Z,1.50
2022-09-02T22:23:46.987Z,1.40
2022-09-02T22:26:29.695Z,2.00
2022-09-02T22:29:02.486Z,1.60
2022-09-02T22:31:35.426Z,1.40
2022-09-02T22:34:07.603Z,1.50
2022-09-02T22:36:54.758Z,1.10
2022-09-02T22:39:33.201Z,1.60
2022-09-02T22:42:16.807Z,2.00
2022-09-02T22:45:10.996Z,2.00
2022-09-02T22:48:06.454Z,2.10
2022-09-02T22:50:59.666Z,1.60
2022-09-02T22:53:29.677Z,1.50
2022-09-02T22:56:03.454Z,1.60
2022-09-02T22:59:03.946Z,1.50
2022-09-02T23:01:46.334Z,1.30
2022-09-02T23:04:28.965Z,1.20
2022-09-02T23:07:00.484Z,1.60
2022-09-02T23:09:32.256Z,1.20
2022-09-02T23:12:11.016Z,1.40
2022-09-02T23:14:48.295Z,1.80
2022-09-02T23:17:25.027Z,1.40
2022-09-02T23:20:10.536Z,1.30
2022-09-02T23:23:03.951Z,1.40
2022-09-02T23:25:43.063Z,1.60
2022-09-02T23:28:16.213Z,1.20
2022-09-02T23:30:54.836Z,0.90
2022-09-02T23:33:35.205Z,1.20
2022-09-02T23:36:12.145Z,1.40
2022-09-02T23:39:04.854Z,1.10
2022-09-02T23:41:35.733Z,1.00
2022-09-02T23:44:09.727Z,1.10
2022-09-02T23:46:48.729Z,1.00
2022-09-02T23:49:31.316Z,1.40
2022-09-02T23:52:16.481Z,1.00
2022-09-02T23:55:03.617Z,1.00
2022-09-02T23:58:03.165Z,1.20
